sensor_id;sensor_type;location;lat;lon;timestamp;pressure;altitude;pressure_sealevel;temperature;humidity
17209;BME280;8720;48.488;9.202;2023-08-24T00:00:29;97239.97;;;25.53;45.74
17209;BME280;8720;48.488;9.202;2023-08-24T00:02:58;97242.03;;;25.49;45.79
17209;BME280;8720;48.488;9.202;2023-08-24T00:05:25;97243.00;;;25.48;46.50
17209;BME280;8720;48.488;9.202;2023-08-24T00:07:52;97239.72;;;25.45;46.10
17209;BME280;8720;48.488;9.202;2023-08-24T00:10:20;97241.66;;;25.43;46.17
17209;BME280;8720;48.488;9.202;2023-08-24T00:12:47;97230.34;;;25.39;46.79
17209;BME280;8720;48.488;9.202;2023-08-24T00:15:16;97233.13;;;25.38;46.54
17209;BME280;8720;48.488;9.202;2023-08-24T00:17:43;97231.53;;;25.35;46.14
17209;BME280;8720;48.488;9.202;2023-08-24T00:20:11;97233.59;;;25.32;46.95
17209;BME280;8720;48.488;9.202;2023-08-24T00:22:39;97230.41;;;25.27;46.78
17209;BME280;8720;48.488;9.202;2023-08-24T00:25:08;97223.50;;;25.24;46.96
17209;BME280;8720;48.488;9.202;2023-08-24T00:27:36;97223.59;;;25.22;46.59
17209;BME280;8720;48.488;9.202;2023-08-24T00:30:05;97229.22;;;25.19;46.63
17209;BME280;8720;48.488;9.202;2023-08-24T00:32:35;97226.75;;;25.16;46.58
17209;BME280;8720;48.488;9.202;2023-08-24T00:35:02;97227.28;;;25.10;46.95
17209;BME280;8720;48.488;9.202;2023-08-24T00:37:32;97235.03;;;25.13;47.04
17209;BME280;8720;48.488;9.202;2023-08-24T00:40:00;97221.78;;;25.12;47.25
17209;BME280;8720;48.488;9.202;2023-08-24T00:42:30;97223.72;;;25.10;47.19
17209;BME280;8720;48.488;9.202;2023-08-24T00:44:58;97223.13;;;25.06;47.71
17209;BME280;8720;48.488;9.202;2023-08-24T00:47:25;97218.84;;;25.04;47.48
17209;BME280;8720;48.488;9.202;2023-08-24T00:49:54;97205.94;;;24.98;47.48
17209;BME280;8720;48.488;9.202;2023-08-24T00:52:21;97221.13;;;24.97;47.47
17209;BME280;8720;48.488;9.202;2023-08-24T00:54:51;97210.69;;;24.94;47.82
17209;BME280;8720;48.488;9.202;2023-08-24T00:57:18;97210.81;;;24.93;47.93
17209;BME280;8720;48.488;9.202;2023-08-24T00:59:46;97213.72;;;24.90;48.29
17209;BME280;8720;48.488;9.202;2023-08-24T01:02:13;97218.34;;;24.88;48.22
17209;BME280;8720;48.488;9.202;2023-08-24T01:04:41;97213.22;;;24.85;48.63
17209;BME280;8720;48.488;9.202;2023-08-24T01:07:11;97206.28;;;24.82;48.98
17209;BME280;8720;48.488;9.202;2023-08-24T01:09:40;97201.41;;;24.76;48.64
17209;BME280;8720;48.488;9.202;2023-08-24T01:12:20;97204.06;;;24.76;48.57
17209;BME280;8720;48.488;9.202;2023-08-24T01:15:02;97197.25;;;24.72;48.78
17209;BME280;8720;48.488;9.202;2023-08-24T01:17:32;97192.97;;;24.70;49.09
17209;BME280;8720;48.488;9.202;2023-08-24T01:20:02;97189.56;;;24.68;49.18
17209;BME280;8720;48.488;9.202;2023-08-24T01:22:41;97188.97;;;24.64;49.29
17209;BME280;8720;48.488;9.202;2023-08-24T01:25:16;97179.47;;;24.60;49.40
17209;BME280;8720;48.488;9.202;2023-08-24T01:27:47;97185.75;;;24.59;48.97
17209;BME280;8720;48.488;9.202;2023-08-24T01:30:18;97182.47;;;24.56;48.92
17209;BME280;8720;48.488;9.202;2023-08-24T01:32:46;97180.78;;;24.55;49.46
17209;BME280;8720;48.488;9.202;2023-08-24T01:35:13;97173.72;;;24.54;49.08
17209;BME280;8720;48.488;9.202;2023-08-24T01:37:40;97171.16;;;24.52;49.37
17209;BME280;8720;48.488;9.202;2023-08-24T01:40:16;97167.75;;;24.50;48.96
17209;BME280;8720;48.488;9.202;2023-08-24T01:42:56;97173.31;;;24.47;49.36
17209;BME280;8720;48.488;9.202;2023-08-24T01:45:30;97163.63;;;24.46;49.59
17209;BME280;8720;48.488;9.202;2023-08-24T01:48:03;97164.09;;;24.40;49.38
17209;BME280;8720;48.488;9.202;2023-08-24T01:50:31;97169.44;;;24.40;49.65
17209;BME280;8720;48.488;9.202;2023-08-24T01:52:59;97175.03;;;24.37;49.60
17209;BME280;8720;48.488;9.202;2023-08-24T01:55:26;97163.72;;;24.33;49.62
17209;BME280;8720;48.488;9.202;2023-08-24T01:57:55;97174.41;;;24.33;49.46
17209;BME280;8720;48.488;9.202;2023-08-24T02:05:35;97161.72;;;24.24;49.84
17209;BME280;8720;48.488;9.202;2023-08-24T02:08:03;97168.06;;;24.23;49.80
17209;BME280;8720;48.488;9.202;2023-08-24T02:10:31;97168.19;;;24.22;49.79
17209;BME280;8720;48.488;9.202;2023-08-24T02:13:00;97169.13;;;24.21;49.59
17209;BME280;8720;48.488;9.202;2023-08-24T02:15:27;97170.19;;;24.18;50.12
17209;BME280;8720;48.488;9.202;2023-08-24T02:17:55;97169.47;;;24.16;50.58
17209;BME280;8720;48.488;9.202;2023-08-24T02:20:23;97165.22;;;24.14;50.50
17209;BME280;8720;48.488;9.202;2023-08-24T02:22:51;97158.28;;;24.11;50.20
17209;BME280;8720;48.488;9.202;2023-08-24T02:25:18;97155.00;;;24.08;50.48
17209;BME280;8720;48.488;9.202;2023-08-24T02:27:46;97161.53;;;24.04;50.15
17209;BME280;8720;48.488;9.202;2023-08-24T02:30:16;97151.03;;;24.01;50.09
17209;BME280;8720;48.488;9.202;2023-08-24T02:32:43;97148.59;;;23.98;50.43
17209;BME280;8720;48.488;9.202;2023-08-24T02:35:10;97139.09;;;23.94;50.94
17209;BME280;8720;48.488;9.202;2023-08-24T02:37:38;97139.34;;;23.91;50.95
17209;BME280;8720;48.488;9.202;2023-08-24T02:40:07;97139.44;;;23.89;50.48
17209;BME280;8720;48.488;9.202;2023-08-24T02:42:35;97144.16;;;23.86;50.74
17209;BME280;8720;48.488;9.202;2023-08-24T02:45:04;97146.94;;;23.84;50.87
17209;BME280;8720;48.488;9.202;2023-08-24T02:47:33;97151.44;;;23.84;51.05
17209;BME280;8720;48.488;9.202;2023-08-24T02:50:02;97152.41;;;23.83;50.54
17209;BME280;8720;48.488;9.202;2023-08-24T02:52:29;97147.28;;;23.80;51.27
17209;BME280;8720;48.488;9.202;2023-08-24T02:54:57;97152.63;;;23.80;51.34
17209;BME280;8720;48.488;9.202;2023-08-24T02:57:24;97146.47;;;23.79;51.44
17209;BME280;8720;48.488;9.202;2023-08-24T02:59:51;97143.66;;;23.81;51.17
17209;BME280;8720;48.488;9.202;2023-08-24T03:02:19;97143.41;;;23.84;51.87
17209;BME280;8720;48.488;9.202;2023-08-24T03:04:49;97146.00;;;23.85;51.37
17209;BME280;8720;48.488;9.202;2023-08-24T03:07:17;97152.91;;;23.88;51.43
17209;BME280;8720;48.488;9.202;2023-08-24T03:09:44;97144.69;;;23.91;51.77
17209;BME280;8720;48.488;9.202;2023-08-24T03:12:12;97146.38;;;23.92;51.60
17209;BME280;8720;48.488;9.202;2023-08-24T03:14:39;97147.13;;;23.94;52.04
17209;BME280;8720;48.488;9.202;2023-08-24T03:17:09;97155.13;;;23.94;51.55
17209;BME280;8720;48.488;9.202;2023-08-24T03:19:37;97150.66;;;23.94;52.03
17209;BME280;8720;48.488;9.202;2023-08-24T03:22:05;97157.69;;;23.95;51.94
17209;BME280;8720;48.488;9.202;2023-08-24T03:24:33;97155.13;;;23.94;51.77
17209;BME280;8720;48.488;9.202;2023-08-24T03:27:00;97154.28;;;23.93;52.33
17209;BME280;8720;48.488;9.202;2023-08-24T03:29:28;97159.00;;;23.90;52.01
17209;BME280;8720;48.488;9.202;2023-08-24T03:31:55;97157.41;;;23.87;52.35
17209;BME280;8720;48.488;9.202;2023-08-24T03:34:22;97160.19;;;23.86;52.05
17209;BME280;8720;48.488;9.202;2023-08-24T03:36:50;97138.94;;;23.84;52.04
17209;BME280;8720;48.488;9.202;2023-08-24T03:39:20;97137.34;;;23.82;52.35
17209;BME280;8720;48.488;9.202;2023-08-24T03:41:47;97136.72;;;23.78;52.09
17209;BME280;8720;48.488;9.202;2023-08-24T03:44:14;97141.31;;;23.76;52.26
17209;BME280;8720;48.488;9.202;2023-08-24T03:46:41;97131.75;;;23.74;52.17
17209;BME280;8720;48.488;9.202;2023-08-24T03:49:09;97131.00;;;23.72;51.97
17209;BME280;8720;48.488;9.202;2023-08-24T03:51:36;97127.59;;;23.70;52.07
17209;BME280;8720;48.488;9.202;2023-08-24T03:54:04;97121.50;;;23.68;52.33
17209;BME280;8720;48.488;9.202;2023-08-24T03:56:33;97125.13;;;23.67;52.67
17209;BME280;8720;48.488;9.202;2023-08-24T03:59:00;97113.56;;;23.66;52.79
17209;BME280;8720;48.488;9.202;2023-08-24T04:01:28;97105.31;;;23.58;52.46
17209;BME280;8720;48.488;9.202;2023-08-24T04:03:56;97116.38;;;23.65;52.07
17209;BME280;8720;48.488;9.202;2023-08-24T04:06:23;97118.09;;;23.66;52.47
17209;BME280;8720;48.488;9.202;2023-08-24T04:08:51;97110.91;;;23.66;52.75
17209;BME280;8720;48.488;9.202;2023-08-24T04:11:18;97104.63;;;23.67;52.38
17209;BME280;8720;48.488;9.202;2023-08-24T04:13:47;97100.13;;;23.68;52.58
17209;BME280;8720;48.488;9.202;2023-08-24T04:16:15;97105.47;;;23.68;52.31
17209;BME280;8720;48.488;9.202;2023-08-24T04:18:42;97096.47;;;23.69;52.35
17209;BME280;8720;48.488;9.202;2023-08-24T04:21:09;97091.13;;;23.69;52.56
17209;BME280;8720;48.488;9.202;2023-08-24T04:23:37;97094.41;;;23.72;52.75
17209;BME280;8720;48.488;9.202;2023-08-24T04:26:04;97096.03;;;23.75;52.38
17209;BME280;8720;48.488;9.202;2023-08-24T04:28:32;97090.56;;;23.76;52.57
17209;BME280;8720;48.488;9.202;2023-08-24T04:31:01;97085.94;;;23.78;52.46
17209;BME280;8720;48.488;9.202;2023-08-24T04:33:28;97082.09;;;23.82;52.58
17209;BME280;8720;48.488;9.202;2023-08-24T04:35:56;97080.16;;;23.84;52.45
17209;BME280;8720;48.488;9.202;2023-08-24T04:38:23;97085.38;;;23.86;52.51
17209;BME280;8720;48.488;9.202;2023-08-24T04:40:53;97085.38;;;23.86;52.64
17209;BME280;8720;48.488;9.202;2023-08-24T04:43:22;97072.47;;;24.14;52.62
17209;BME280;8720;48.488;9.202;2023-08-24T04:45:51;97075.53;;;24.10;52.16
17209;BME280;8720;48.488;9.202;2023-08-24T04:48:21;97072.25;;;24.06;52.39
17209;BME280;8720;48.488;9.202;2023-08-24T04:50:50;97078.41;;;24.07;52.84
17209;BME280;8720;48.488;9.202;2023-08-24T04:53:20;97076.59;;;24.07;52.50
17209;BME280;8720;48.488;9.202;2023-08-24T04:55:47;97072.84;;;24.10;52.37
17209;BME280;8720;48.488;9.202;2023-08-24T04:58:14;97064.59;;;24.13;52.64
17209;BME280;8720;48.488;9.202;2023-08-24T05:00:42;97057.28;;;24.15;52.53
17209;BME280;8720;48.488;9.202;2023-08-24T05:03:09;97043.72;;;24.18;52.29
17209;BME280;8720;48.488;9.202;2023-08-24T05:05:38;97041.78;;;24.20;52.60
17209;BME280;8720;48.488;9.202;2023-08-24T05:08:06;97035.44;;;24.21;52.39
17209;BME280;8720;48.488;9.202;2023-08-24T05:10:36;97035.19;;;24.24;52.72
17209;BME280;8720;48.488;9.202;2023-08-24T05:13:04;97033.03;;;24.29;52.75
17209;BME280;8720;48.488;9.202;2023-08-24T05:15:31;97042.63;;;24.31;52.14
17209;BME280;8720;48.488;9.202;2023-08-24T05:17:58;97043.38;;;24.33;52.24
17209;BME280;8720;48.488;9.202;2023-08-24T05:20:26;97044.94;;;24.36;52.00
17209;BME280;8720;48.488;9.202;2023-08-24T05:22:55;97043.09;;;24.37;52.31
17209;BME280;8720;48.488;9.202;2023-08-24T05:25:23;97046.53;;;24.39;52.25
17209;BME280;8720;48.488;9.202;2023-08-24T05:27:51;97054.41;;;24.40;52.10
17209;BME280;8720;48.488;9.202;2023-08-24T05:30:18;97048.84;;;24.43;52.40
17209;BME280;8720;48.488;9.202;2023-08-24T05:32:45;97059.28;;;24.46;52.25
17209;BME280;8720;48.488;9.202;2023-08-24T05:35:12;97068.78;;;24.50;52.39
17209;BME280;8720;48.488;9.202;2023-08-24T05:37:40;97060.75;;;24.50;52.44
17209;BME280;8720;48.488;9.202;2023-08-24T05:40:10;97065.25;;;24.61;52.19
17209;BME280;8720;48.488;9.202;2023-08-24T05:42:37;97057.72;;;24.66;52.17
17209;BME280;8720;48.488;9.202;2023-08-24T05:45:06;97053.59;;;24.73;51.89
17209;BME280;8720;48.488;9.202;2023-08-24T05:47:33;97054.84;;;24.80;51.42
17209;BME280;8720;48.488;9.202;2023-08-24T05:50:00;97047.28;;;24.85;51.49
17209;BME280;8720;48.488;9.202;2023-08-24T05:52:27;97050.44;;;24.90;51.74
17209;BME280;8720;48.488;9.202;2023-08-24T05:54:55;97034.63;;;24.87;51.24
17209;BME280;8720;48.488;9.202;2023-08-24T05:57:24;97042.63;;;24.98;51.66
17209;BME280;8720;48.488;9.202;2023-08-24T05:59:51;97041.28;;;25.03;51.42
17209;BME280;8720;48.488;9.202;2023-08-24T06:02:18;97041.50;;;25.11;51.41
17209;BME280;8720;48.488;9.202;2023-08-24T06:04:46;97036.25;;;25.21;51.18
17209;BME280;8720;48.488;9.202;2023-08-24T06:07:13;97031.72;;;25.33;51.53
17209;BME280;8720;48.488;9.202;2023-08-24T06:09:41;97025.38;;;25.45;51.06
17209;BME280;8720;48.488;9.202;2023-08-24T06:12:08;97031.41;;;25.58;51.08
17209;BME280;8720;48.488;9.202;2023-08-24T06:14:37;97036.00;;;25.67;50.66
17209;BME280;8720;48.488;9.202;2023-08-24T06:17:04;97029.28;;;25.72;50.58
17209;BME280;8720;48.488;9.202;2023-08-24T06:19:31;97034.25;;;25.77;50.78
17209;BME280;8720;48.488;9.202;2023-08-24T06:21:58;97034.84;;;25.80;50.51
17209;BME280;8720;48.488;9.202;2023-08-24T06:24:26;97038.13;;;25.84;50.76
17209;BME280;8720;48.488;9.202;2023-08-24T06:26:53;97032.63;;;25.85;50.45
17209;BME280;8720;48.488;9.202;2023-08-24T06:29:20;97030.81;;;25.86;50.41
17209;BME280;8720;48.488;9.202;2023-08-24T06:31:49;97036.16;;;25.86;50.17
17209;BME280;8720;48.488;9.202;2023-08-24T06:34:16;97031.91;;;25.83;50.61
17209;BME280;8720;48.488;9.202;2023-08-24T06:36:43;97030.09;;;25.84;50.36
17209;BME280;8720;48.488;9.202;2023-08-24T06:39:10;97027.41;;;25.84;50.24
17209;BME280;8720;48.488;9.202;2023-08-24T06:41:38;97037.28;;;25.83;50.56
17209;BME280;8720;48.488;9.202;2023-08-24T06:44:08;97035.31;;;25.85;50.15
17209;BME280;8720;48.488;9.202;2023-08-24T06:46:36;97036.16;;;25.86;50.44
17209;BME280;8720;48.488;9.202;2023-08-24T06:49:04;97046.63;;;25.89;50.76
17209;BME280;8720;48.488;9.202;2023-08-24T06:51:31;97039.16;;;25.92;50.22
17209;BME280;8720;48.488;9.202;2023-08-24T06:54:02;97045.25;;;25.94;50.12
17209;BME280;8720;48.488;9.202;2023-08-24T06:56:29;97047.69;;;25.97;50.22
17209;BME280;8720;48.488;9.202;2023-08-24T06:58:56;97050.94;;;26.01;50.72
17209;BME280;8720;48.488;9.202;2023-08-24T07:01:24;97049.72;;;26.05;50.80
17209;BME280;8720;48.488;9.202;2023-08-24T07:03:52;97062.03;;;26.07;50.58
17209;BME280;8720;48.488;9.202;2023-08-24T07:06:20;97071.66;;;26.10;50.40
17209;BME280;8720;48.488;9.202;2023-08-24T07:08:48;97066.16;;;26.12;50.24
17209;BME280;8720;48.488;9.202;2023-08-24T07:11:15;97064.31;;;26.12;50.41
17209;BME280;8720;48.488;9.202;2023-08-24T07:13:43;97072.50;;;26.11;50.53
17209;BME280;8720;48.488;9.202;2023-08-24T07:16:10;97078.69;;;26.11;50.07
17209;BME280;8720;48.488;9.202;2023-08-24T07:18:38;97082.38;;;26.10;49.93
17209;BME280;8720;48.488;9.202;2023-08-24T07:21:05;97080.56;;;26.11;50.50
17209;BME280;8720;48.488;9.202;2023-08-24T07:23:34;97092.06;;;26.22;49.94
17209;BME280;8720;48.488;9.202;2023-08-24T07:26:01;97092.25;;;26.51;50.01
17209;BME280;8720;48.488;9.202;2023-08-24T07:28:29;97100.69;;;26.46;49.57
17209;BME280;8720;48.488;9.202;2023-08-24T07:30:56;97094.34;;;26.47;49.74
17209;BME280;8720;48.488;9.202;2023-08-24T07:33:23;97086.88;;;26.51;49.98
17209;BME280;8720;48.488;9.202;2023-08-24T07:35:52;97076.72;;;26.54;49.61
17209;BME280;8720;48.488;9.202;2023-08-24T07:38:19;97077.78;;;26.63;49.10
17209;BME280;8720;48.488;9.202;2023-08-24T07:40:48;97075.47;;;26.79;49.57
17209;BME280;8720;48.488;9.202;2023-08-24T07:43:15;97078.00;;;27.11;49.38
17209;BME280;8720;48.488;9.202;2023-08-24T07:45:42;97075.13;;;27.52;48.74
17209;BME280;8720;48.488;9.202;2023-08-24T07:48:10;97074.03;;;27.83;47.82
17209;BME280;8720;48.488;9.202;2023-08-24T07:50:37;97070.41;;;28.03;47.10
17209;BME280;8720;48.488;9.202;2023-08-24T07:53:04;97070.78;;;28.18;46.94
17209;BME280;8720;48.488;9.202;2023-08-24T07:55:31;97063.72;;;28.26;46.99
17209;BME280;8720;48.488;9.202;2023-08-24T07:58:00;97071.78;;;28.36;47.10
17209;BME280;8720;48.488;9.202;2023-08-24T08:00:28;97069.47;;;28.60;46.63
17209;BME280;8720;48.488;9.202;2023-08-24T08:02:55;97075.28;;;29.02;46.29
17209;BME280;8720;48.488;9.202;2023-08-24T08:05:23;97069.47;;;29.51;45.92
17209;BME280;8720;48.488;9.202;2023-08-24T08:07:50;97058.22;;;30.00;44.81
17209;BME280;8720;48.488;9.202;2023-08-24T08:10:18;97054.75;;;30.51;44.37
17209;BME280;8720;48.488;9.202;2023-08-24T08:12:46;97059.94;;;30.96;43.61
17209;BME280;8720;48.488;9.202;2023-08-24T08:15:15;97066.06;;;31.40;42.80
17209;BME280;8720;48.488;9.202;2023-08-24T08:17:42;97062.81;;;31.78;41.97
17209;BME280;8720;48.488;9.202;2023-08-24T08:20:10;97057.09;;;32.13;41.23
17209;BME280;8720;48.488;9.202;2023-08-24T08:22:38;97064.41;;;32.45;40.59
17209;BME280;8720;48.488;9.202;2023-08-24T08:25:06;97061.31;;;32.72;40.22
17209;BME280;8720;48.488;9.202;2023-08-24T08:27:32;97062.47;;;32.93;39.40
17209;BME280;8720;48.488;9.202;2023-08-24T08:30:00;97069.56;;;33.11;39.48
17209;BME280;8720;48.488;9.202;2023-08-24T08:32:28;97067.28;;;33.30;38.86
17209;BME280;8720;48.488;9.202;2023-08-24T08:34:55;97066.34;;;33.46;38.64
17209;BME280;8720;48.488;9.202;2023-08-24T08:37:24;97066.50;;;33.52;38.56
17209;BME280;8720;48.488;9.202;2023-08-24T08:39:51;97058.56;;;33.51;38.35
17209;BME280;8720;48.488;9.202;2023-08-24T08:42:19;97061.94;;;33.45;38.00
17209;BME280;8720;48.488;9.202;2023-08-24T08:44:46;97064.88;;;33.35;37.85
17209;BME280;8720;48.488;9.202;2023-08-24T08:47:14;97064.91;;;33.27;38.09
17209;BME280;8720;48.488;9.202;2023-08-24T08:49:45;97065.78;;;33.20;38.44
17209;BME280;8720;48.488;9.202;2023-08-24T08:52:14;97068.19;;;33.15;38.54
17209;BME280;8720;48.488;9.202;2023-08-24T08:54:42;97035.31;;;33.01;38.46
17209;BME280;8720;48.488;9.202;2023-08-24T08:57:10;97054.06;;;33.19;38.17
17209;BME280;8720;48.488;9.202;2023-08-24T08:59:39;97050.19;;;33.22;37.88
17209;BME280;8720;48.488;9.202;2023-08-24T09:02:10;97042.53;;;33.25;38.01
17209;BME280;8720;48.488;9.202;2023-08-24T09:04:41;97044.72;;;33.30;38.20
17209;BME280;8720;48.488;9.202;2023-08-24T09:07:14;97037.91;;;33.34;37.97
17209;BME280;8720;48.488;9.202;2023-08-24T09:09:41;97035.22;;;33.34;37.78
17209;BME280;8720;48.488;9.202;2023-08-24T09:12:09;97027.75;;;33.36;37.69
17209;BME280;8720;48.488;9.202;2023-08-24T09:14:37;97027.03;;;33.42;37.68
17209;BME280;8720;48.488;9.202;2023-08-24T09:17:05;97028.38;;;33.46;37.50
17209;BME280;8720;48.488;9.202;2023-08-24T09:19:34;97012.59;;;33.49;37.39
17209;BME280;8720;48.488;9.202;2023-08-24T09:22:04;97008.84;;;33.50;37.51
17209;BME280;8720;48.488;9.202;2023-08-24T09:24:35;97001.38;;;33.52;37.50
17209;BME280;8720;48.488;9.202;2023-08-24T09:27:15;97001.03;;;33.55;37.61
17209;BME280;8720;48.488;9.202;2023-08-24T09:29:42;96992.22;;;33.53;36.71
17209;BME280;8720;48.488;9.202;2023-08-24T09:32:10;96997.16;;;33.50;37.14
17209;BME280;8720;48.488;9.202;2023-08-24T09:34:39;96992.94;;;33.47;37.15
17209;BME280;8720;48.488;9.202;2023-08-24T09:37:13;96987.53;;;33.39;36.91
17209;BME280;8720;48.488;9.202;2023-08-24T09:39:42;96968.88;;;33.36;37.17
17209;BME280;8720;48.488;9.202;2023-08-24T09:42:13;96960.59;;;33.38;37.15
17209;BME280;8720;48.488;9.202;2023-08-24T09:44:43;96941.44;;;33.31;37.26
17209;BME280;8720;48.488;9.202;2023-08-24T09:47:12;96945.88;;;33.32;37.46
17209;BME280;8720;48.488;9.202;2023-08-24T09:49:39;96954.78;;;33.41;37.63
17209;BME280;8720;48.488;9.202;2023-08-24T09:52:08;96948.50;;;33.40;37.58
17209;BME280;8720;48.488;9.202;2023-08-24T09:54:37;96951.53;;;33.45;37.56
17209;BME280;8720;48.488;9.202;2023-08-24T09:57:08;96936.13;;;33.46;37.74
17209;BME280;8720;48.488;9.202;2023-08-24T09:59:43;96930.69;;;33.46;37.48
17209;BME280;8720;48.488;9.202;2023-08-24T10:02:21;96928.63;;;33.48;37.62
17209;BME280;8720;48.488;9.202;2023-08-24T10:04:52;96927.44;;;33.50;37.69
17209;BME280;8720;48.488;9.202;2023-08-24T10:07:23;96914.53;;;33.52;37.59
17209;BME280;8720;48.488;9.202;2023-08-24T10:10:00;96908.25;;;33.52;37.53
17209;BME280;8720;48.488;9.202;2023-08-24T10:12:41;96907.44;;;33.51;37.63
17209;BME280;8720;48.488;9.202;2023-08-24T10:15:11;96911.47;;;33.55;37.69
17209;BME280;8720;48.488;9.202;2023-08-24T10:17:39;96904.28;;;33.62;37.45
17209;BME280;8720;48.488;9.202;2023-08-24T10:20:09;96897.75;;;33.71;37.14
17209;BME280;8720;48.488;9.202;2023-08-24T10:22:38;96896.19;;;33.77;37.23
17209;BME280;8720;48.488;9.202;2023-08-24T10:25:08;96883.09;;;33.80;37.58
17209;BME280;8720;48.488;9.202;2023-08-24T10:27:40;96872.53;;;33.85;37.17
17209;BME280;8720;48.488;9.202;2023-08-24T10:30:11;96871.97;;;33.90;37.33
17209;BME280;8720;48.488;9.202;2023-08-24T10:32:40;96878.53;;;33.96;37.42
17209;BME280;8720;48.488;9.202;2023-08-24T10:35:09;96867.31;;;33.99;37.32
17209;BME280;8720;48.488;9.202;2023-08-24T10:37:36;96868.25;;;34.06;37.05
17209;BME280;8720;48.488;9.202;2023-08-24T10:40:05;96868.84;;;34.16;37.00
17209;BME280;8720;48.488;9.202;2023-08-24T10:42:45;96862.66;;;34.22;37.22
17209;BME280;8720;48.488;9.202;2023-08-24T10:45:14;96861.25;;;34.26;37.02
17209;BME280;8720;48.488;9.202;2023-08-24T10:47:45;96856.94;;;34.31;36.94
17209;BME280;8720;48.488;9.202;2023-08-24T10:50:14;96850.97;;;34.36;36.81
17209;BME280;8720;48.488;9.202;2023-08-24T10:52:44;96848.81;;;34.46;36.96
17209;BME280;8720;48.488;9.202;2023-08-24T10:55:26;96843.94;;;34.56;36.62
17209;BME280;8720;48.488;9.202;2023-08-24T10:57:59;96833.16;;;34.62;36.83
17209;BME280;8720;48.488;9.202;2023-08-24T11:00:29;96831.84;;;34.73;36.80
17209;BME280;8720;48.488;9.202;2023-08-24T11:02:57;96828.81;;;34.83;36.80
17209;BME280;8720;48.488;9.202;2023-08-24T11:05:27;96835.81;;;34.92;36.38
17209;BME280;8720;48.488;9.202;2023-08-24T11:07:59;96837.78;;;34.98;36.25
17209;BME280;8720;48.488;9.202;2023-08-24T11:10:33;96815.63;;;35.01;36.24
17209;BME280;8720;48.488;9.202;2023-08-24T11:13:14;96815.72;;;35.07;36.28
17209;BME280;8720;48.488;9.202;2023-08-24T11:15:44;96811.56;;;35.11;36.43
17209;BME280;8720;48.488;9.202;2023-08-24T11:18:23;96802.22;;;35.20;36.61
17209;BME280;8720;48.488;9.202;2023-08-24T11:20:54;96803.34;;;35.26;35.57
17209;BME280;8720;48.488;9.202;2023-08-24T11:23:23;96802.56;;;35.32;35.69
17209;BME280;8720;48.488;9.202;2023-08-24T11:25:52;96803.44;;;35.39;35.70
17209;BME280;8720;48.488;9.202;2023-08-24T11:28:25;96799.50;;;35.41;35.46
17209;BME280;8720;48.488;9.202;2023-08-24T11:30:53;96790.59;;;35.47;35.55
17209;BME280;8720;48.488;9.202;2023-08-24T11:33:28;96794.19;;;35.54;35.95
17209;BME280;8720;48.488;9.202;2023-08-24T11:35:57;96786.72;;;35.63;35.32
17209;BME280;8720;48.488;9.202;2023-08-24T11:38:25;96783.88;;;35.71;35.11
17209;BME280;8720;48.488;9.202;2023-08-24T11:40:52;96782.88;;;35.79;34.96
17209;BME280;8720;48.488;9.202;2023-08-24T11:43:26;96775.38;;;35.87;35.04
17209;BME280;8720;48.488;9.202;2023-08-24T11:45:54;96767.50;;;35.92;34.80
17209;BME280;8720;48.488;9.202;2023-08-24T11:48:25;96772.78;;;36.00;34.77
17209;BME280;8720;48.488;9.202;2023-08-24T11:50:55;96766.34;;;36.08;34.09
17209;BME280;8720;48.488;9.202;2023-08-24T11:53:22;96768.03;;;36.15;34.54
17209;BME280;8720;48.488;9.202;2023-08-24T11:55:52;96758.25;;;36.27;34.73
17209;BME280;8720;48.488;9.202;2023-08-24T11:58:20;96753.47;;;36.36;34.37
17209;BME280;8720;48.488;9.202;2023-08-24T12:00:49;96767.16;;;36.49;34.15
17209;BME280;8720;48.488;9.202;2023-08-24T12:03:17;96760.31;;;36.60;34.24
17209;BME280;8720;48.488;9.202;2023-08-24T12:05:45;96759.06;;;36.69;33.86
17209;BME280;8720;48.488;9.202;2023-08-24T12:08:12;96758.03;;;36.76;33.72
17209;BME280;8720;48.488;9.202;2023-08-24T12:10:43;96743.81;;;36.87;32.80
17209;BME280;8720;48.488;9.202;2023-08-24T12:13:12;96742.59;;;36.96;32.54
17209;BME280;8720;48.488;9.202;2023-08-24T12:15:41;96748.50;;;37.06;32.57
17209;BME280;8720;48.488;9.202;2023-08-24T12:18:12;96741.56;;;37.17;31.79
17209;BME280;8720;48.488;9.202;2023-08-24T12:20:40;96736.53;;;37.27;31.74
17209;BME280;8720;48.488;9.202;2023-08-24T12:23:11;96729.84;;;37.36;31.46
17209;BME280;8720;48.488;9.202;2023-08-24T12:25:42;96730.25;;;37.46;31.31
17209;BME280;8720;48.488;9.202;2023-08-24T12:28:12;96706.31;;;37.42;31.38
17209;BME280;8720;48.488;9.202;2023-08-24T12:30:47;96717.22;;;37.61;31.44
17209;BME280;8720;48.488;9.202;2023-08-24T12:33:24;96706.91;;;37.63;30.92
17209;BME280;8720;48.488;9.202;2023-08-24T12:35:52;96709.00;;;37.74;30.95
17209;BME280;8720;48.488;9.202;2023-08-24T12:38:21;96712.81;;;37.80;30.75
17209;BME280;8720;48.488;9.202;2023-08-24T12:40:50;96698.28;;;37.86;30.71
17209;BME280;8720;48.488;9.202;2023-08-24T12:43:17;96689.00;;;37.93;30.61
17209;BME280;8720;48.488;9.202;2023-08-24T12:45:44;96685.63;;;37.98;30.36
17209;BME280;8720;48.488;9.202;2023-08-24T12:48:12;96686.44;;;38.05;30.12
17209;BME280;8720;48.488;9.202;2023-08-24T12:50:40;96680.97;;;38.11;29.94
17209;BME280;8720;48.488;9.202;2023-08-24T12:53:08;96686.41;;;38.18;30.07
17209;BME280;8720;48.488;9.202;2023-08-24T12:55:38;96676.31;;;38.25;29.94
17209;BME280;8720;48.488;9.202;2023-08-24T12:58:06;96673.56;;;38.32;29.82
17209;BME280;8720;48.488;9.202;2023-08-24T13:00:34;96669.53;;;38.34;29.71
17209;BME280;8720;48.488;9.202;2023-08-24T13:03:01;96659.84;;;38.38;29.69
17209;BME280;8720;48.488;9.202;2023-08-24T13:05:29;96655.38;;;38.44;29.34
17209;BME280;8720;48.488;9.202;2023-08-24T13:07:57;96657.25;;;38.50;29.57
17209;BME280;8720;48.488;9.202;2023-08-24T13:10:25;96659.31;;;38.54;29.49
17209;BME280;8720;48.488;9.202;2023-08-24T13:12:52;96660.56;;;38.58;29.15
17209;BME280;8720;48.488;9.202;2023-08-24T13:15:19;96663.94;;;38.60;29.44
17209;BME280;8720;48.488;9.202;2023-08-24T13:17:47;96658.41;;;38.67;29.32
17209;BME280;8720;48.488;9.202;2023-08-24T13:20:15;96641.97;;;38.73;29.38
17209;BME280;8720;48.488;9.202;2023-08-24T13:22:42;96641.09;;;38.79;29.38